Time;durP1;ratioP1;P1;durP2;ratioP2;P2;SDS_P1;SDS_P2;PMS_P1;PMS_P2;Temp;Humidity;BMP_temperature;BMP_pressure;BME280_temperature;BME280_humidity;BME280_pressure;Samples;Min_cycle;Max_cycle;Signal;HPM_P1;HPM_P2
2023/07/05 00:00:37;;;;;;;2.22;1.73;;;;;;;14.79;77.58;100204.00;4992697;28;20090;-47
2023/07/05 00:03:04;;;;;;;3.25;0.95;;;;;;;14.71;77.53;100195.97;4967440;28;20066;-48
2023/07/05 00:05:36;;;;;;;3.30;0.88;;;;;;;14.56;77.74;100192.28;4956862;28;20049;-48
2023/07/05 00:08:04;;;;;;;1.50;1.17;;;;;;;14.42;77.95;100194.94;4957626;28;20058;-46
2023/07/05 00:10:31;;;;;;;2.03;1.73;;;;;;;14.40;77.95;100192.53;4956355;28;20058;-47
2023/07/05 00:12:59;;;;;;;4.30;0.88;;;;;;;14.39;78.17;100190.13;4957185;28;20046;-47
2023/07/05 00:15:28;;;;;;;1.45;0.95;;;;;;;14.35;78.24;100194.88;4956582;28;20050;-47
2023/07/05 00:17:56;;;;;;;2.33;1.13;;;;;;;14.32;78.13;100190.84;4980232;28;20499;-50
2023/07/05 00:20:23;;;;;;;1.70;0.95;;;;;;;14.30;78.09;100192.41;4990722;28;20043;-47
2023/07/05 00:22:51;;;;;;;4.55;1.20;;;;;;;14.27;78.47;100193.97;4991735;28;20050;-48
2023/07/05 00:25:19;;;;;;;2.17;1.00;;;;;;;14.27;78.22;100193.97;4966392;28;20129;-46
2023/07/05 00:27:45;;;;;;;3.50;1.63;;;;;;;14.23;78.15;100201.50;4991298;28;20051;-46
2023/07/05 00:30:12;;;;;;;1.40;0.90;;;;;;;14.20;78.07;100195.88;4991347;28;20052;-46
2023/07/05 00:32:39;;;;;;;1.83;0.90;;;;;;;14.07;77.95;100194.56;4990748;28;20501;-49
2023/07/05 00:35:07;;;;;;;2.38;0.82;;;;;;;13.98;77.98;100192.88;4992093;28;20053;-46
2023/07/05 00:37:34;;;;;;;3.40;1.05;;;;;;;13.91;78.16;100197.56;4992388;28;20054;-47
2023/07/05 00:40:00;;;;;;;0.60;0.60;;;;;;;13.82;77.91;100203.44;4991365;28;20042;-47
2023/07/05 00:42:27;;;;;;;6.82;0.90;;;;;;;13.73;78.23;100200.16;4991128;28;20060;-49
2023/07/05 00:45:09;;;;;;;3.90;0.77;;;;;;;13.65;78.10;100201.25;4991697;28;20049;-48
2023/07/05 00:47:41;;;;;;;1.10;0.85;;;;;;;13.64;77.96;100202.41;4991696;28;20052;-46
2023/07/05 00:50:21;;;;;;;3.65;1.00;;;;;;;13.55;78.00;100190.81;4991160;28;20038;-48
2023/07/05 00:52:49;;;;;;;1.85;0.93;;;;;;;13.53;77.63;100198.69;4991786;28;20074;-46
2023/07/05 00:55:17;;;;;;;1.63;0.80;;;;;;;13.49;77.94;100197.88;4991751;28;20409;-48
2023/07/05 00:57:45;;;;;;;1.83;1.73;;;;;;;13.38;77.92;100194.16;4991541;28;20105;-47
2023/07/05 01:00:17;;;;;;;3.63;0.95;;;;;;;13.27;77.86;100209.88;4989499;28;20038;-46
2023/07/05 01:02:49;;;;;;;3.05;1.00;;;;;;;13.22;78.01;100204.66;4973980;28;20054;-48
2023/07/05 01:05:17;;;;;;;3.08;1.60;;;;;;;13.21;77.76;100214.19;4990658;28;20468;-46
2023/07/05 01:07:46;;;;;;;2.97;1.08;;;;;;;13.14;77.69;100219.63;5003236;28;20042;-48
2023/07/05 01:10:22;;;;;;;4.05;0.93;;;;;;;13.10;77.83;100218.78;4990790;28;20064;-46
2023/07/05 01:13:07;;;;;;;5.18;1.30;;;;;;;13.10;77.93;100221.56;4991842;28;20054;-47
2023/07/05 01:15:46;;;;;;;2.38;1.00;;;;;;;13.04;77.86;100220.25;4989125;28;20046;-46
2023/07/05 01:18:34;;;;;;;2.47;0.68;;;;;;;12.98;78.05;100210.59;4984380;28;20138;-51
2023/07/05 01:21:38;;;;;;;2.58;0.95;;;;;;;12.95;78.12;100222.47;4986964;28;20081;-48
2023/07/05 01:24:11;;;;;;;4.85;1.00;;;;;;;12.91;78.21;100216.06;4982796;28;20049;-46
2023/07/05 01:26:38;;;;;;;1.75;0.93;;;;;;;12.93;78.02;100219.25;4995664;28;20052;-47
2023/07/05 01:29:18;;;;;;;3.58;1.02;;;;;;;12.89;78.21;100218.44;4995875;28;20407;-46
2023/07/05 01:32:09;;;;;;;2.67;1.02;;;;;;;12.79;78.32;100226.22;4995238;28;20038;-48
2023/07/05 01:34:57;;;;;;;3.45;0.90;;;;;;;12.73;78.78;100222.13;4989814;28;20061;-48
2023/07/05 01:37:42;;;;;;;2.13;1.83;;;;;;;12.71;78.47;100230.03;4995560;28;20042;-46
2023/07/05 01:40:14;;;;;;;1.77;1.00;;;;;;;12.68;78.80;100219.66;4994244;28;20050;-46
2023/07/05 01:42:44;;;;;;;3.05;1.10;;;;;;;12.64;78.89;100229.94;4993961;28;20054;-48
2023/07/05 01:45:12;;;;;;;4.57;1.88;;;;;;;12.66;78.83;100222.03;4989698;28;20050;-47
2023/07/05 01:47:47;;;;;;;2.83;1.00;;;;;;;12.64;79.01;100218.81;4979029;28;20452;-50
2023/07/05 01:50:29;;;;;;;2.78;1.20;;;;;;;12.66;78.80;100235.09;4989296;28;20042;-46
2023/07/05 01:53:06;;;;;;;3.47;1.10;;;;;;;12.63;78.97;100236.66;4995296;28;20038;-46
2023/07/05 01:55:49;;;;;;;3.42;1.00;;;;;;;12.66;78.98;100227.59;4987277;28;20050;-48
2023/07/05 01:58:20;;;;;;;4.35;1.08;;;;;;;12.60;79.09;100229.06;4979395;28;20106;-48
2023/07/05 02:00:48;;;;;;;3.55;1.08;;;;;;;12.63;79.16;100228.31;4986660;28;20460;-46
2023/07/05 02:03:19;;;;;;;4.25;1.08;;;;;;;12.66;79.48;100235.91;4992612;28;20575;-47
2023/07/05 02:05:47;;;;;;;0.70;0.70;;;;;;;12.62;79.20;100237.03;4991061;28;20498;-46
2023/07/05 02:08:15;;;;;;;1.27;0.82;;;;;;;12.61;79.31;100239.00;4985358;28;20054;-47
2023/07/05 02:10:41;;;;;;;2.13;1.10;;;;;;;12.58;79.16;100236.97;4993956;28;20050;-46
2023/07/05 02:13:10;;;;;;;3.17;1.20;;;;;;;12.55;79.12;100237.69;4993495;28;20058;-46
2023/07/05 02:15:38;;;;;;;3.28;1.48;;;;;;;12.43;79.39;100235.13;4990557;28;20053;-49
2023/07/05 02:18:06;;;;;;;5.47;1.20;;;;;;;12.36;79.54;100240.56;4994201;28;20043;-47
2023/07/05 02:20:35;;;;;;;2.88;1.08;;;;;;;12.34;79.68;100242.88;4993240;28;20046;-46
2023/07/05 02:23:03;;;;;;;2.50;1.00;;;;;;;12.32;79.85;100236.91;4991365;28;20051;-46
2023/07/05 02:25:31;;;;;;;2.50;1.20;;;;;;;12.26;79.76;100241.16;4993176;28;20042;-47
2023/07/05 02:27:58;;;;;;;4.88;1.38;;;;;;;12.17;79.75;100243.38;4994421;28;20162;-47
2023/07/05 02:30:26;;;;;;;1.92;1.23;;;;;;;12.07;80.04;100244.75;4994506;28;20053;-48
2023/07/05 02:32:54;;;;;;;1.95;1.52;;;;;;;12.05;80.14;100243.50;4975020;28;20806;-46
2023/07/05 02:35:21;;;;;;;6.07;1.20;;;;;;;11.98;80.13;100240.63;4992651;28;20060;-46
2023/07/05 02:37:47;;;;;;;3.55;1.38;;;;;;;11.94;80.37;100245.31;4994507;28;20049;-46
2023/07/05 02:40:14;;;;;;;2.88;1.05;;;;;;;11.93;80.24;100246.47;4993493;28;20097;-48
2023/07/05 02:42:41;;;;;;;2.35;1.25;;;;;;;11.89;80.48;100242.81;4993134;28;20054;-49
2023/07/05 02:45:08;;;;;;;3.33;1.48;;;;;;;11.83;80.59;100233.19;4992730;28;20049;-46
2023/07/05 02:47:35;;;;;;;5.00;1.58;;;;;;;11.79;80.76;100243.41;4992054;28;20050;-46
2023/07/05 02:50:02;;;;;;;5.05;1.77;;;;;;;11.76;80.84;100244.94;4991678;28;20042;-47
2023/07/05 02:52:29;;;;;;;3.38;1.45;;;;;;;11.71;80.95;100247.19;4990181;28;20050;-47
2023/07/05 02:54:55;;;;;;;3.50;1.50;;;;;;;11.69;80.94;100241.22;4979450;28;20053;-46
2023/07/05 02:57:22;;;;;;;7.65;1.58;;;;;;;11.67;81.20;100232.44;4981777;28;20046;-46
2023/07/05 02:59:49;;;;;;;4.68;1.50;;;;;;;11.63;81.23;100235.94;4990690;28;20056;-46
2023/07/05 03:02:16;;;;;;;2.50;1.45;;;;;;;11.59;81.29;100223.97;5096702;22;20074;-46
2023/07/05 03:04:43;;;;;;;2.33;1.33;;;;;;;11.61;81.50;100232.72;5010354;28;20153;-46
2023/07/05 03:07:10;;;;;;;3.95;2.08;;;;;;;11.59;81.43;100229.53;4993175;28;20100;-46
2023/07/05 03:09:37;;;;;;;8.88;1.77;;;;;;;11.59;81.47;100234.25;5010872;28;20483;-51
2023/07/05 03:12:04;;;;;;;2.60;1.70;;;;;;;11.60;81.59;100231.09;5011028;28;20050;-47
2023/07/05 03:14:30;;;;;;;3.03;1.98;;;;;;;11.64;81.52;100239.50;5007927;28;20045;-46
2023/07/05 03:16:57;;;;;;;3.28;1.40;;;;;;;11.65;81.52;100240.31;5008202;28;20037;-46
2023/07/05 03:19:24;;;;;;;5.40;1.60;;;;;;;11.62;81.41;100233.53;5010349;28;20042;-46
2023/07/05 03:21:51;;;;;;;1.92;1.38;;;;;;;11.63;81.46;100240.66;5007388;28;20084;-46
2023/07/05 03:24:18;;;;;;;3.22;1.60;;;;;;;11.60;81.57;100225.56;4994454;28;20099;-46
2023/07/05 03:26:44;;;;;;;5.95;1.40;;;;;;;11.57;81.59;100229.06;5010948;28;20073;-46
2023/07/05 03:29:11;;;;;;;5.75;1.70;;;;;;;11.66;81.77;100234.41;5009180;28;20100;-47
2023/07/05 03:31:38;;;;;;;4.30;1.45;;;;;;;11.69;81.65;100238.44;5005876;28;20514;-47
2023/07/05 03:34:05;;;;;;;2.22;1.42;;;;;;;11.71;81.69;100239.69;5011263;28;20052;-48
2023/07/05 03:36:31;;;;;;;2.40;1.60;;;;;;;11.72;81.85;100237.72;5010029;28;20041;-47
2023/07/05 03:38:58;;;;;;;3.38;1.23;;;;;;;11.74;81.81;100229.81;4975331;28;20045;-46
2023/07/05 03:41:26;;;;;;;3.25;1.42;;;;;;;11.78;81.94;100234.28;5010097;28;20104;-47
2023/07/05 03:43:57;;;;;;;8.15;1.85;;;;;;;11.80;81.71;100233.91;5009128;28;20049;-48
2023/07/05 03:46:25;;;;;;;4.95;1.23;;;;;;;11.79;81.76;100226.75;5013763;28;20108;-47
2023/07/05 03:48:52;;;;;;;3.28;1.30;;;;;;;11.80;81.91;100239.47;5003503;28;20046;-48
2023/07/05 03:51:21;;;;;;;6.82;2.60;;;;;;;11.79;82.10;100232.31;5010849;28;20408;-47
2023/07/05 03:53:55;;;;;;;2.90;1.52;;;;;;;11.82;82.08;100237.13;5011054;28;20494;-46
2023/07/05 03:56:23;;;;;;;2.50;1.05;;;;;;;11.79;81.93;100237.84;5012212;28;20533;-46
2023/07/05 03:58:50;;;;;;;4.68;1.45;;;;;;;11.78;81.95;100241.81;5012449;28;20057;-47
2023/07/05 04:01:20;;;;;;;5.20;1.52;;;;;;;11.75;82.28;100243.34;5015799;28;20053;-46
2023/07/05 04:03:54;;;;;;;4.65;1.58;;;;;;;11.78;81.99;100239.03;5011282;28;20042;-46
2023/07/05 04:06:23;;;;;;;1.40;0.98;;;;;;;11.77;82.05;100243.78;5011461;28;20069;-46
2023/07/05 04:08:50;;;;;;;3.83;1.40;;;;;;;11.74;82.52;100243.69;5011904;28;20415;-46
2023/07/05 04:11:17;;;;;;;4.72;1.13;;;;;;;11.74;82.50;100246.47;4995008;28;20105;-47
2023/07/05 04:13:46;;;;;;;2.35;1.02;;;;;;;11.70;82.64;100251.16;5011003;28;20509;-46
2023/07/05 04:16:19;;;;;;;2.40;0.70;;;;;;;11.66;82.64;100247.44;5013940;28;20050;-46
2023/07/05 04:18:50;;;;;;;1.80;1.20;;;;;;;11.67;82.75;100247.09;5010049;28;20128;-46
2023/07/05 04:21:17;;;;;;;5.07;1.38;;;;;;;11.67;82.59;100249.06;5012200;28;20058;-48
2023/07/05 04:23:44;;;;;;;3.25;1.35;;;;;;;11.71;82.63;100253.53;5010452;28;20048;-46
2023/07/05 04:26:17;;;;;;;3.80;1.50;;;;;;;11.78;82.44;100255.69;5011554;28;20054;-46
2023/07/05 04:28:44;;;;;;;5.18;1.30;;;;;;;11.79;82.46;100254.50;5011925;28;20049;-47
2023/07/05 04:31:15;;;;;;;3.17;1.75;;;;;;;11.72;82.44;100248.81;5011839;28;21004;-47
2023/07/05 04:33:42;;;;;;;3.22;1.00;;;;;;;11.71;82.87;100252.75;5011141;28;20500;-46
2023/07/05 04:36:09;;;;;;;3.72;1.45;;;;;;;11.77;82.78;100256.84;5011866;28;20052;-47
2023/07/05 04:38:52;;;;;;;4.57;1.60;;;;;;;11.81;83.01;100249.41;5010851;28;20100;-47
2023/07/05 04:41:19;;;;;;;2.72;1.30;;;;;;;11.83;82.57;100247.06;5011152;28;20555;-46
2023/07/05 04:43:46;;;;;;;4.80;1.40;;;;;;;11.84;82.73;100251.41;5010581;28;20070;-48
2023/07/05 04:46:14;;;;;;;2.47;1.70;;;;;;;11.84;82.74;100256.97;5014415;28;20137;-50
2023/07/05 04:48:41;;;;;;;2.60;1.52;;;;;;;11.84;82.69;100248.66;5011954;28;20052;-48
2023/07/05 04:51:07;;;;;;;4.57;1.20;;;;;;;11.85;82.96;100253.03;5011295;28;20052;-46
2023/07/05 04:53:36;;;;;;;5.32;1.15;;;;;;;11.84;82.80;100255.00;4992534;28;20054;-47
2023/07/05 04:56:03;;;;;;;3.95;1.10;;;;;;;11.85;83.09;100250.25;5010019;28;20050;-47
2023/07/05 04:58:31;;;;;;;4.00;1.10;;;;;;;11.86;83.08;100254.66;5011818;28;20046;-47
2023/07/05 05:01:03;;;;;;;3.97;1.15;;;;;;;11.90;82.99;100261.06;5011083;28;20587;-46
2023/07/05 05:03:31;;;;;;;1.83;1.25;;;;;;;11.92;82.93;100253.16;5008746;28;20765;-46
2023/07/05 05:05:59;;;;;;;1.67;1.08;;;;;;;11.93;82.95;100246.47;5002227;28;20089;-47
2023/07/05 05:08:26;;;;;;;1.70;1.00;;;;;;;11.94;82.98;100248.84;5006280;28;20487;-47
2023/07/05 05:10:57;;;;;;;5.78;1.30;;;;;;;11.96;82.70;100243.78;5009907;28;20038;-46
2023/07/05 05:13:23;;;;;;;3.50;1.02;;;;;;;11.95;82.98;100256.03;4998292;28;20046;-51
2023/07/05 05:15:51;;;;;;;3.13;1.08;;;;;;;11.95;82.86;100246.91;5016724;28;20041;-47
2023/07/05 05:18:18;;;;;;;4.47;1.67;;;;;;;11.97;82.84;100252.88;5011134;28;20125;-47
2023/07/05 05:20:46;;;;;;;3.55;1.40;;;;;;;12.03;82.98;100259.72;5011417;28;20611;-52
2023/07/05 05:23:13;;;;;;;1.65;1.00;;;;;;;12.03;82.98;100254.19;5010069;28;20049;-46
2023/07/05 05:25:44;;;;;;;1.73;1.30;;;;;;;12.03;83.02;100249.44;5011250;28;20041;-46
2023/07/05 05:28:12;;;;;;;2.83;1.63;;;;;;;12.04;82.99;100253.03;5000580;28;20057;-47
2023/07/05 05:30:40;;;;;;;1.58;1.08;;;;;;;12.10;83.05;100259.88;5003774;28;20051;-49
2023/07/05 05:33:12;;;;;;;7.05;1.27;;;;;;;12.14;82.96;100263.53;5008805;28;20049;-46
2023/07/05 05:35:46;;;;;;;4.70;1.20;;;;;;;12.18;83.03;100265.19;5009877;28;20046;-46
2023/07/05 05:38:13;;;;;;;4.05;0.93;;;;;;;12.20;82.72;100254.53;5001714;28;20049;-47
2023/07/05 05:40:40;;;;;;;3.22;0.90;;;;;;;12.27;82.92;100258.59;5011237;28;20053;-47
2023/07/05 05:43:07;;;;;;;4.25;1.30;;;;;;;12.28;82.83;100257.44;5011006;28;20432;-46
2023/07/05 05:45:34;;;;;;;2.30;1.38;;;;;;;12.31;83.00;100263.03;5010434;28;20108;-47
2023/07/05 05:48:00;;;;;;;6.60;1.00;;;;;;;12.36;82.89;100268.31;5005668;28;20042;-46
2023/07/05 05:50:27;;;;;;;3.67;1.40;;;;;;;12.35;82.76;100261.16;5003399;28;20111;-46
2023/07/05 05:52:54;;;;;;;3.42;1.05;;;;;;;12.37;82.92;100269.91;5003747;28;20070;-47
2023/07/05 05:55:21;;;;;;;5.95;1.08;;;;;;;12.42;83.09;100266.81;5001767;28;20042;-47
2023/07/05 05:57:47;;;;;;;1.42;1.20;;;;;;;12.49;83.00;100263.38;5007645;28;20050;-47
2023/07/05 06:00:15;;;;;;;4.40;1.35;;;;;;;12.58;82.65;100270.28;5003375;28;20120;-47
2023/07/05 06:02:42;;;;;;;2.80;1.20;;;;;;;12.63;82.83;100261.66;5005702;28;20049;-47
2023/07/05 06:05:10;;;;;;;3.33;1.13;;;;;;;12.67;82.77;100268.09;4999822;28;20080;-46
2023/07/05 06:07:38;;;;;;;7.80;1.30;;;;;;;12.70;82.70;100266.53;5006494;28;20045;-48
2023/07/05 06:10:06;;;;;;;5.97;1.55;;;;;;;12.75;82.56;100280.91;5008284;28;20049;-47
2023/07/05 06:12:32;;;;;;;3.13;1.10;;;;;;;12.83;82.45;100277.09;5010066;28;20046;-46
2023/07/05 06:14:59;;;;;;;5.63;1.17;;;;;;;12.91;82.51;100274.41;5010189;28;20042;-46
2023/07/05 06:17:26;;;;;;;5.53;1.50;;;;;;;12.97;82.40;100278.50;5007572;28;20054;-47
2023/07/05 06:19:53;;;;;;;3.13;1.10;;;;;;;13.01;82.23;100268.22;5007683;28;20037;-46
2023/07/05 06:22:20;;;;;;;7.82;2.97;;;;;;;13.02;82.20;100270.66;4986644;28;20587;-47
2023/07/05 06:24:47;;;;;;;2.80;1.00;;;;;;;13.06;82.14;100262.34;5014260;28;20068;-47
2023/07/05 06:27:14;;;;;;;3.40;1.42;;;;;;;13.16;82.05;100272.84;5012128;28;20042;-48
2023/07/05 06:29:41;;;;;;;15.98;3.38;;;;;;;13.20;82.14;100268.97;5011338;28;20049;-47
2023/07/05 06:32:07;;;;;;;4.15;1.25;;;;;;;13.25;82.16;100271.41;4990070;28;20049;-47
2023/07/05 06:34:34;;;;;;;5.22;0.77;;;;;;;13.26;81.86;100275.00;5006210;28;20108;-49
2023/07/05 06:37:01;;;;;;;7.53;1.20;;;;;;;13.30;81.85;100270.28;5004474;28;20445;-46
2023/07/05 06:39:28;;;;;;;3.67;1.17;;;;;;;13.30;81.97;100259.97;5011643;28;20069;-46
2023/07/05 06:41:55;;;;;;;6.30;1.42;;;;;;;13.30;81.90;100268.31;5013886;28;20069;-47
2023/07/05 06:44:22;;;;;;;4.05;1.42;;;;;;;13.21;81.81;100272.56;5016733;28;20037;-46
2023/07/05 06:46:49;;;;;;;1.52;1.02;;;;;;;13.20;81.79;100273.72;5013567;28;20041;-46
2023/07/05 06:49:16;;;;;;;2.10;0.95;;;;;;;13.25;81.99;100276.19;5012395;28;20491;-46
2023/07/05 06:51:43;;;;;;;5.78;1.55;;;;;;;13.30;81.94;100278.63;5013512;28;20078;-48
2023/07/05 06:54:10;;;;;;;5.18;1.20;;;;;;;13.45;81.93;100283.22;5020482;28;20046;-46
2023/07/05 06:56:37;;;;;;;1.50;1.15;;;;;;;13.54;81.72;100278.19;5012060;28;20045;-46
2023/07/05 06:59:04;;;;;;;4.10;1.02;;;;;;;13.57;81.46;100277.44;5013427;28;20053;-47
2023/07/05 07:01:30;;;;;;;1.52;0.90;;;;;;;13.65;81.46;100276.34;5005645;28;20057;-47
2023/07/05 07:03:57;;;;;;;4.43;1.05;;;;;;;13.76;81.31;100279.28;5004264;28;20483;-47
2023/07/05 07:06:24;;;;;;;3.65;1.35;;;;;;;13.82;81.32;100281.34;5007769;28;20448;-47
2023/07/05 07:08:51;;;;;;;4.75;1.85;;;;;;;13.97;81.24;100291.50;5010209;28;20045;-49
2023/07/05 07:11:18;;;;;;;4.03;1.27;;;;;;;14.08;81.08;100285.25;4994584;28;20131;-47
2023/07/05 07:13:46;;;;;;;4.03;1.20;;;;;;;14.19;80.75;100286.19;4999818;28;20109;-53
2023/07/05 07:16:15;;;;;;;7.38;2.78;;;;;;;14.28;80.68;100287.47;4993414;28;20085;-47
2023/07/05 07:18:49;;;;;;;2.13;1.00;;;;;;;14.34;80.61;100287.97;5006604;28;20685;-47
2023/07/05 07:21:19;;;;;;;4.13;1.10;;;;;;;14.37;80.54;100293.56;4995700;28;20049;-44
2023/07/05 07:23:47;;;;;;;7.68;1.38;;;;;;;14.43;80.52;100289.25;5009147;28;20088;-47
2023/07/05 07:26:19;;;;;;;2.88;1.05;;;;;;;14.46;80.20;100280.13;5001525;28;20184;-46
2023/07/05 07:28:49;;;;;;;2.10;1.10;;;;;;;14.52;80.09;100288.94;5008368;28;20053;-47
2023/07/05 07:31:20;;;;;;;1.13;0.70;;;;;;;14.52;79.79;100286.97;5003738;28;20040;-48
2023/07/05 07:33:48;;;;;;;3.17;0.90;;;;;;;14.52;79.58;100286.97;5010266;28;20072;-46
2023/07/05 07:36:18;;;;;;;2.03;1.30;;;;;;;14.51;79.56;100279.78;5010522;28;20057;-46
2023/07/05 07:38:46;;;;;;;3.30;1.88;;;;;;;14.59;79.54;100289.00;5008697;28;20053;-46
2023/07/05 07:41:22;;;;;;;3.55;1.15;;;;;;;14.67;79.51;100287.88;5011635;28;20107;-47
2023/07/05 07:43:51;;;;;;;0.82;0.68;;;;;;;14.68;79.02;100289.50;5009227;28;20566;-47
2023/07/05 07:46:20;;;;;;;5.10;1.27;;;;;;;14.64;78.86;100286.66;5001852;28;20518;-47
2023/07/05 07:48:50;;;;;;;2.33;0.98;;;;;;;14.69;79.00;100282.75;5008786;28;20097;-46
2023/07/05 07:51:18;;;;;;;2.65;1.10;;;;;;;14.85;78.99;100296.44;5011122;28;20069;-49
2023/07/05 07:54:04;;;;;;;1.70;0.85;;;;;;;14.96;78.57;100305.66;5012159;28;20041;-46
2023/07/05 07:56:31;;;;;;;2.78;0.80;;;;;;;15.09;78.80;100296.63;5006242;28;20096;-46
2023/07/05 07:58:59;;;;;;;4.68;0.98;;;;;;;15.47;78.60;100294.53;5006231;28;20053;-45
2023/07/05 08:01:30;;;;;;;14.65;3.90;;;;;;;15.75;78.16;100305.88;5002525;28;20054;-43
2023/07/05 08:03:59;;;;;;;1.42;1.02;;;;;;;15.86;77.53;100292.75;5011359;28;20038;-47
2023/07/05 08:06:42;;;;;;;5.20;1.13;;;;;;;16.01;77.60;100299.22;5010750;28;20048;-46
2023/07/05 08:09:15;;;;;;;5.18;1.25;;;;;;;16.10;76.82;100310.78;5010392;28;20124;-46
2023/07/05 08:11:43;;;;;;;2.25;1.13;;;;;;;16.19;76.59;100302.88;4999182;28;20377;-46
2023/07/05 08:14:13;;;;;;;0.70;0.70;;;;;;;16.18;75.96;100309.63;5008998;28;20045;-46
2023/07/05 08:16:40;;;;;;;1.60;0.90;;;;;;;15.97;75.18;100307.56;4995170;28;20439;-48
2023/07/05 08:19:07;;;;;;;2.10;0.70;;;;;;;16.24;76.17;100299.69;5006020;28;20056;-50
2023/07/05 08:21:36;;;;;;;1.50;0.63;;;;;;;17.07;75.41;100310.66;4999159;28;20058;-47
2023/07/05 08:24:04;;;;;;;1.08;0.93;;;;;;;17.68;74.27;100309.41;5003382;28;20080;-46
2023/07/05 08:26:51;;;;;;;3.83;0.68;;;;;;;18.27;73.38;100308.38;5009410;28;20480;-51
2023/07/05 08:29:18;;;;;;;2.83;0.63;;;;;;;18.84;72.28;100309.69;4985927;28;20050;-52
2023/07/05 08:31:46;;;;;;;3.30;0.70;;;;;;;19.21;70.61;100316.59;4997506;28;20092;-44
2023/07/05 08:34:14;;;;;;;2.72;0.55;;;;;;;19.12;70.16;100296.63;5010568;28;20081;-48
2023/07/05 08:36:42;;;;;;;1.20;0.47;;;;;;;19.79;68.93;100308.03;5009116;28;20116;-46
2023/07/05 08:39:11;;;;;;;1.00;0.70;;;;;;;20.64;66.90;100319.03;5002615;28;20145;-44
2023/07/05 08:41:48;;;;;;;1.55;0.43;;;;;;;20.50;65.35;100321.22;5009822;28;20038;-45
2023/07/05 08:44:27;;;;;;;1.80;0.50;;;;;;;19.95;64.78;100322.31;5008090;28;20051;-50
2023/07/05 08:47:02;;;;;;;3.10;0.60;;;;;;;19.52;63.97;100309.94;5010580;28;20049;-45
2023/07/05 08:49:36;;;;;;;1.83;0.60;;;;;;;19.24;63.76;100305.34;5000780;28;20096;-45
2023/07/05 08:52:04;;;;;;;2.60;0.60;;;;;;;19.18;63.25;100300.59;5011302;28;20057;-45
2023/07/05 08:54:33;;;;;;;0.93;0.60;;;;;;;19.23;62.82;100305.75;5006169;28;20045;-46
2023/07/05 08:57:08;;;;;;;5.43;0.75;;;;;;;19.66;62.50;100315.41;5003971;28;20050;-45
2023/07/05 08:59:47;;;;;;;3.95;1.05;;;;;;;20.07;61.77;100311.75;5008338;28;20050;-44
2023/07/05 09:02:19;;;;;;;1.20;0.80;;;;;;;19.72;60.39;100322.16;4991179;28;20064;-44
2023/07/05 09:04:49;;;;;;;2.17;0.65;;;;;;;19.28;60.83;100314.53;5009340;28;20053;-44
2023/07/05 09:07:31;;;;;;;1.70;0.40;;;;;;;19.35;60.95;100322.09;5006004;28;20050;-44
2023/07/05 09:10:09;;;;;;;3.08;0.45;;;;;;;19.56;60.29;100305.09;5006987;28;20049;-45
2023/07/05 09:12:55;;;;;;;0.57;0.35;;;;;;;20.33;59.70;100313.84;4996622;28;20052;-48
2023/07/05 09:15:32;;;;;;;4.30;0.80;;;;;;;20.98;58.53;100302.03;5014473;28;20057;-45
2023/07/05 09:18:14;;;;;;;3.35;0.40;;;;;;;21.76;57.45;100314.78;4999563;28;20112;-44
2023/07/05 09:20:40;;;;;;;1.30;0.52;;;;;;;22.62;55.58;100314.59;4989463;28;20134;-44
2023/07/05 09:23:40;;;;;;;3.22;0.47;;;;;;;23.48;54.01;100315.00;5009054;28;20046;-45
2023/07/05 09:26:40;;;;;;;1.73;0.80;;;;;;;23.95;52.21;100323.81;4992880;28;20081;-45
2023/07/05 09:29:26;;;;;;;3.03;0.60;;;;;;;23.33;51.60;100320.16;4998453;28;20523;-44
2023/07/05 09:31:54;;;;;;;0.40;0.30;;;;;;;22.34;51.60;100322.50;5004847;28;20043;-46
2023/07/05 09:34:43;;;;;;;0.98;0.50;;;;;;;21.57;52.96;100324.00;5006156;28;20511;-45
2023/07/05 09:37:22;;;;;;;1.20;0.28;;;;;;;20.99;53.01;100311.28;5005389;28;20042;-44
2023/07/05 09:40:10;;;;;;;3.08;0.32;;;;;;;20.24;53.68;100327.59;5008071;28;20034;-44
2023/07/05 09:43:02;;;;;;;0.85;0.45;;;;;;;19.56;54.86;100321.94;5004278;28;20050;-44
2023/07/05 09:45:30;;;;;;;2.85;0.73;;;;;;;19.09;55.58;100322.72;5015286;28;20053;-44
2023/07/05 09:48:02;;;;;;;3.20;0.30;;;;;;;18.68;56.64;100319.81;5011381;28;20133;-44
2023/07/05 09:50:30;;;;;;;1.75;0.40;;;;;;;18.38;57.24;100331.56;5014499;28;20052;-46
2023/07/05 09:53:10;;;;;;;1.08;0.40;;;;;;;18.27;57.74;100323.19;5007794;28;20053;-47
2023/07/05 09:56:05;;;;;;;1.13;0.40;;;;;;;18.17;58.10;100332.44;5012793;28;20106;-45
2023/07/05 09:58:33;;;;;;;1.35;0.20;;;;;;;18.08;57.89;100320.88;5008512;28;20103;-45
2023/07/05 10:01:04;;;;;;;1.90;0.75;;;;;;;18.54;58.08;100329.09;5008703;28;20049;-46
2023/07/05 10:03:36;;;;;;;0.77;0.30;;;;;;;18.43;57.82;100319.09;5004610;28;20141;-45
2023/07/05 10:06:10;;;;;;;1.38;0.40;;;;;;;18.05;58.48;100312.50;4991021;28;20283;-45
2023/07/05 10:08:45;;;;;;;1.80;0.40;;;;;;;17.79;59.40;100322.16;5014411;28;20124;-45
2023/07/05 10:11:23;;;;;;;2.75;0.77;;;;;;;17.57;59.76;100324.22;5013850;28;20038;-45
2023/07/05 10:14:15;;;;;;;3.53;0.57;;;;;;;17.41;60.47;100325.81;5013304;28;20042;-45
2023/07/05 10:16:56;;;;;;;3.42;1.77;;;;;;;17.45;60.96;100324.59;4997889;28;20064;-45
2023/07/05 10:19:28;;;;;;;1.17;0.35;;;;;;;17.67;60.90;100319.00;5012102;28;20077;-44
2023/07/05 10:22:06;;;;;;;4.18;0.60;;;;;;;17.91;60.35;100312.53;5022412;28;20053;-45
2023/07/05 10:24:44;;;;;;;2.30;0.75;;;;;;;18.08;59.99;100311.69;5013207;28;20046;-47
2023/07/05 10:27:21;;;;;;;3.15;0.95;;;;;;;18.84;59.16;100312.50;4966463;28;21215;-47
2023/07/05 10:29:50;;;;;;;4.07;0.80;;;;;;;19.55;58.17;100320.31;5006111;28;20069;-46
2023/07/05 10:32:18;;;;;;;2.53;0.52;;;;;;;19.58;57.19;100321.50;5013887;28;20080;-47
2023/07/05 10:34:51;;;;;;;1.40;0.50;;;;;;;19.17;57.72;100327.03;5012817;28;20376;-44
2023/07/05 10:37:26;;;;;;;1.33;0.85;;;;;;;18.64;58.85;100322.63;4993705;28;20418;-45
2023/07/05 10:39:54;;;;;;;3.15;0.73;;;;;;;18.25;59.82;100322.81;5014031;28;20141;-45
2023/07/05 10:42:21;;;;;;;0.82;0.30;;;;;;;18.00;60.44;100321.31;4993853;28;20050;-44
2023/07/05 10:44:48;;;;;;;1.75;0.55;;;;;;;17.96;61.01;100309.31;4997096;28;20054;-46
2023/07/05 10:47:15;;;;;;;1.63;0.63;;;;;;;18.16;61.42;100316.84;5013659;28;20050;-46
2023/07/05 10:49:43;;;;;;;2.60;0.40;;;;;;;18.24;61.14;100309.22;5013748;28;20041;-48
2023/07/05 10:52:15;;;;;;;0.98;0.43;;;;;;;18.25;60.83;100310.78;5013411;28;20053;-46
2023/07/05 10:54:46;;;;;;;1.98;0.60;;;;;;;18.26;60.98;100312.41;5011087;28;20045;-46
2023/07/05 10:57:28;;;;;;;1.27;0.30;;;;;;;18.17;61.05;100298.03;5009960;28;20101;-45
2023/07/05 11:00:11;;;;;;;;;;;;;;;18.12;61.21;100309.66;5010088;28;20041;-49
2023/07/05 11:03:11;;;;;;;2.60;0.30;;;;;;;18.32;61.37;100302.34;4998489;28;19947;-51
2023/07/05 11:05:44;;;;;;;2.03;0.30;;;;;;;18.57;61.28;100305.06;4995482;28;20459;-45
2023/07/05 11:08:27;;;;;;;3.05;0.50;;;;;;;18.66;60.78;100314.63;5013127;28;20052;-47
2023/07/05 11:10:58;;;;;;;3.60;1.20;;;;;;;18.51;60.89;100312.28;5012357;28;20053;-46
2023/07/05 11:13:29;;;;;;;0.88;0.50;;;;;;;18.39;60.91;100304.31;5011243;28;20068;-46
2023/07/05 11:15:57;;;;;;;1.63;0.40;;;;;;;18.29;61.08;100300.38;5018663;28;20452;-47
2023/07/05 11:18:27;;;;;;;1.45;0.38;;;;;;;18.46;60.96;100305.09;5007320;28;20507;-49
2023/07/05 11:20:58;;;;;;;2.30;0.45;;;;;;;18.65;61.09;100295.38;5012921;28;20048;-47
2023/07/05 11:23:43;;;;;;;4.57;1.27;;;;;;;18.87;60.91;100293.22;5012989;28;20057;-48
2023/07/05 11:26:27;;;;;;;3.85;0.82;;;;;;;19.04;60.77;100292.28;5001344;28;20108;-46
2023/07/05 11:28:57;;;;;;;1.98;0.40;;;;;;;19.28;60.65;100292.06;5010181;28;20522;-48
2023/07/05 11:31:27;;;;;;;1.38;0.20;;;;;;;19.36;60.07;100292.81;5012218;28;20060;-52
2023/07/05 11:34:24;;;;;;;0.15;0.15;;;;;;;19.43;60.03;100295.59;5012394;28;21519;-47
2023/07/05 11:37:14;;;;;;;1.48;0.40;;;;;;;19.70;59.70;100302.09;5011509;28;20042;-46
2023/07/05 11:39:42;;;;;;;1.13;0.30;;;;;;;19.88;58.91;100294.28;5012493;28;20057;-46
2023/07/05 11:42:15;;;;;;;2.72;0.32;;;;;;;19.97;58.44;100291.78;5011946;28;20136;-48